Time;durP1;ratioP1;P1;durP2;ratioP2;P2;SDS_P1;SDS_P2;PMS_P1;PMS_P2;Temp;Humidity;BMP_temperature;BMP_pressure;BME280_temperature;BME280_humidity;BME280_pressure;Samples;Min_cycle;Max_cycle;Signal;HPM_P1;HPM_P2
2021/04/22 00:02:21;;;;;;;12.63;3.33;;;5.40;99.90;;;;;;5014167;28;20834;-64
2021/04/22 00:04:46;;;;;;;10.40;2.83;;;5.40;99.90;;;;;;5013946;28;20557;-64
2021/04/22 00:07:17;;;;;;;14.30;3.10;;;5.30;99.90;;;;;;5013780;28;20168;-64
2021/04/22 00:09:43;;;;;;;11.33;3.07;;;5.30;99.90;;;;;;5013630;28;20662;-63
2021/04/22 00:12:09;;;;;;;9.97;3.03;;;5.20;99.90;;;;;;5013091;28;20251;-64
2021/04/22 00:14:35;;;;;;;10.93;3.10;;;5.10;99.90;;;;;;5013994;28;20207;-65
2021/04/22 00:17:03;;;;;;;13.77;3.23;;;5.10;99.90;;;;;;5013834;28;20168;-65
2021/04/22 00:19:29;;;;;;;9.93;3.00;;;5.00;99.90;;;;;;5013653;28;20195;-64
2021/04/22 00:21:54;;;;;;;12.23;3.53;;;5.00;99.90;;;;;;5013441;28;20207;-64
2021/04/22 00:24:20;;;;;;;13.40;3.70;;;5.00;99.90;;;;;;5013697;28;20314;-64
2021/04/22 00:26:45;;;;;;;9.80;3.00;;;4.90;99.90;;;;;;5013822;28;20168;-64
2021/04/22 00:29:11;;;;;;;11.77;3.00;;;4.80;99.90;;;;;;5013445;28;20177;-64
2021/04/22 00:31:37;;;;;;;12.13;3.40;;;4.70;99.90;;;;;;5013333;28;20176;-64
2021/04/22 00:34:02;;;;;;;11.10;3.90;;;4.70;99.90;;;;;;5013384;28;20692;-64
2021/04/22 00:36:28;;;;;;;10.23;3.53;;;4.70;99.90;;;;;;5013450;28;20298;-64
2021/04/22 00:38:54;;;;;;;12.00;3.60;;;4.60;99.90;;;;;;5013224;28;20184;-64
2021/04/22 00:41:19;;;;;;;17.83;4.07;;;4.60;99.90;;;;;;5012761;28;20188;-64
2021/04/22 00:43:45;;;;;;;10.80;3.50;;;4.70;99.90;;;;;;5012572;28;20168;-64
2021/04/22 00:46:11;;;;;;;9.13;3.10;;;4.40;99.90;;;;;;5012032;28;20176;-64
2021/04/22 00:48:36;;;;;;;9.77;3.27;;;4.50;99.90;;;;;;5013192;28;20249;-63
2021/04/22 00:51:02;;;;;;;12.93;3.33;;;4.50;99.90;;;;;;5013044;28;20173;-64
2021/04/22 00:53:28;;;;;;;14.53;3.20;;;4.40;99.90;;;;;;5012984;28;20252;-64
2021/04/22 00:55:55;;;;;;;11.13;3.17;;;4.30;99.90;;;;;;5012823;28;20284;-64
2021/04/22 00:58:21;;;;;;;15.33;3.63;;;4.30;99.90;;;;;;5012952;28;20231;-64
2021/04/22 01:00:57;;;;;;;14.57;3.03;;;4.30;99.90;;;;;;5012412;28;20567;-64
2021/04/22 01:03:24;;;;;;;12.70;3.40;;;4.20;99.90;;;;;;5012626;28;20215;-64
2021/04/22 01:05:59;;;;;;;20.80;4.13;;;4.10;99.90;;;;;;5012980;28;20184;-63
2021/04/22 01:08:25;;;;;;;12.63;3.43;;;4.10;99.90;;;;;;5012656;28;20175;-64
2021/04/22 01:10:51;;;;;;;11.43;3.30;;;4.00;99.90;;;;;;5012703;28;20168;-64
2021/04/22 01:13:17;;;;;;;15.03;4.33;;;4.00;99.90;;;;;;5012554;28;20522;-64
2021/04/22 01:15:43;;;;;;;9.70;3.50;;;4.00;99.90;;;;;;5012852;28;20202;-64
2021/04/22 01:18:09;;;;;;;8.43;4.17;;;4.00;99.90;;;;;;5012546;28;20664;-64
2021/04/22 01:20:46;;;;;;;7.30;2.40;;;3.90;99.90;;;;;;5012581;28;20165;-64
2021/04/22 01:23:13;;;;;;;19.17;3.93;;;3.90;99.90;;;;;;5012104;28;20693;-64
2021/04/22 01:25:42;;;;;;;14.23;3.93;;;3.80;99.90;;;;;;5012583;28;20273;-64
2021/04/22 01:28:11;;;;;;;18.10;3.83;;;3.80;99.90;;;;;;5012091;28;20285;-64
2021/04/22 01:30:40;;;;;;;10.80;3.53;;;3.80;99.90;;;;;;5012198;28;20186;-64
2021/04/22 01:33:07;;;;;;;12.50;3.23;;;3.70;99.90;;;;;;5012538;28;20263;-63
2021/04/22 01:35:37;;;;;;;14.67;4.03;;;3.80;99.90;;;;;;5012179;28;20609;-64
2021/04/22 01:38:04;;;;;;;10.93;2.90;;;3.70;99.90;;;;;;5012451;28;20164;-64
2021/04/22 01:40:30;;;;;;;10.73;3.00;;;3.60;99.90;;;;;;5011952;28;20200;-63
2021/04/22 01:42:56;;;;;;;8.40;3.73;;;3.50;99.90;;;;;;5012426;28;20270;-64
2021/04/22 01:45:22;;;;;;;13.37;3.47;;;3.50;99.90;;;;;;5012089;28;20196;-64
2021/04/22 01:47:49;;;;;;;14.53;3.27;;;3.50;99.90;;;;;;5012160;28;20710;-64
2021/04/22 01:50:18;;;;;;;10.83;3.27;;;3.50;99.90;;;;;;5011749;28;20168;-64
2021/04/22 01:52:45;;;;;;;9.33;3.73;;;3.50;99.90;;;;;;5012388;28;20226;-64
2021/04/22 01:55:14;;;;;;;10.83;3.20;;;3.50;99.90;;;;;;5011657;28;20196;-64
2021/04/22 01:57:40;;;;;;;14.93;3.93;;;3.50;99.90;;;;;;5011929;28;20180;-64
2021/04/22 02:00:14;;;;;;;12.20;3.63;;;3.40;99.90;;;;;;5011400;28;20185;-63
2021/04/22 02:02:41;;;;;;;22.30;4.30;;;3.50;99.90;;;;;;5014262;28;20619;-68
2021/04/22 02:05:08;;;;;;;11.53;3.70;;;3.50;99.90;;;;;;5017505;28;20218;-67
2021/04/22 02:07:34;;;;;;;9.30;3.57;;;3.40;99.90;;;;;;5013098;28;20218;-63
2021/04/22 02:10:00;;;;;;;10.80;4.93;;;3.40;99.90;;;;;;5012620;28;20183;-63
2021/04/22 02:12:26;;;;;;;18.67;4.67;;;3.40;99.90;;;;;;5011925;28;20568;-63
2021/04/22 02:14:51;;;;;;;13.00;3.60;;;3.40;99.90;;;;;;5011747;28;20191;-64
2021/04/22 02:17:17;;;;;;;11.50;3.53;;;3.40;99.90;;;;;;5011684;28;20211;-64
2021/04/22 02:19:43;;;;;;;17.37;4.27;;;3.40;99.90;;;;;;5011163;28;20267;-65
2021/04/22 02:22:09;;;;;;;11.67;3.43;;;3.30;99.90;;;;;;5012751;28;20207;-64
2021/04/22 02:24:35;;;;;;;14.60;4.67;;;3.30;99.90;;;;;;5012944;28;20625;-64
2021/04/22 02:27:01;;;;;;;10.77;3.60;;;3.30;99.90;;;;;;5011021;28;20275;-65
2021/04/22 02:29:27;;;;;;;12.97;4.00;;;3.20;99.90;;;;;;5012715;28;20195;-65
2021/04/22 02:31:52;;;;;;;10.97;3.63;;;3.20;99.90;;;;;;5012375;28;20259;-65
2021/04/22 02:34:18;;;;;;;19.67;4.77;;;3.20;99.90;;;;;;5012352;28;20192;-64
2021/04/22 02:36:43;;;;;;;24.30;4.40;;;3.20;99.90;;;;;;5014332;28;20184;-64
2021/04/22 02:39:09;;;;;;;14.70;3.73;;;3.10;99.90;;;;;;5015704;28;20175;-64
2021/04/22 02:41:35;;;;;;;17.50;4.27;;;3.10;99.90;;;;;;5014138;28;20250;-64
2021/04/22 02:44:00;;;;;;;12.07;3.83;;;3.10;99.90;;;;;;5015733;28;20188;-65
2021/04/22 02:46:26;;;;;;;13.60;4.07;;;3.10;99.90;;;;;;5015452;28;20179;-65
2021/04/22 02:48:52;;;;;;;14.23;4.03;;;3.10;99.90;;;;;;5016425;28;20168;-64
2021/04/22 02:51:17;;;;;;;12.43;3.37;;;3.00;99.90;;;;;;5014959;28;20184;-65
2021/04/22 02:53:43;;;;;;;10.10;3.50;;;3.00;99.90;;;;;;5015422;28;20270;-65
2021/04/22 02:56:09;;;;;;;14.53;3.70;;;3.00;99.90;;;;;;5014934;28;20278;-64
2021/04/22 02:58:34;;;;;;;8.87;3.27;;;3.00;99.90;;;;;;5015450;28;20650;-65
2021/04/22 03:01:00;;;;;;;11.63;4.10;;;2.90;99.90;;;;;;5014804;28;20180;-65
2021/04/22 03:03:26;;;;;;;14.07;4.00;;;2.90;99.90;;;;;;5015071;28;20235;-64
2021/04/22 03:05:55;;;;;;;15.90;4.17;;;2.80;99.90;;;;;;5015127;28;20291;-64
2021/04/22 03:08:20;;;;;;;15.07;4.83;;;2.80;99.90;;;;;;5015433;28;20188;-65
2021/04/22 03:10:46;;;;;;;18.60;4.60;;;2.80;99.90;;;;;;5014725;28;20180;-64
2021/04/22 03:13:12;;;;;;;14.10;4.20;;;2.90;99.90;;;;;;5015187;28;20182;-64
2021/04/22 03:15:38;;;;;;;16.03;5.00;;;2.80;99.90;;;;;;5014805;28;20235;-65
2021/04/22 03:18:04;;;;;;;9.10;4.87;;;2.80;99.90;;;;;;5015131;28;20297;-64
2021/04/22 03:20:29;;;;;;;8.23;4.40;;;2.80;99.90;;;;;;5014464;28;20272;-64
2021/04/22 03:22:56;;;;;;;15.43;4.77;;;2.70;99.90;;;;;;5014797;28;20211;-65
2021/04/22 03:25:23;;;;;;;14.07;5.50;;;2.70;99.90;;;;;;5050183;22;20227;-64
2021/04/22 03:27:49;;;;;;;16.70;4.30;;;2.70;99.90;;;;;;5034345;28;20207;-64
2021/04/22 03:30:17;;;;;;;13.33;4.90;;;2.60;99.90;;;;;;5034194;28;20210;-64
2021/04/22 03:32:43;;;;;;;16.13;4.80;;;2.60;99.90;;;;;;5034314;28;20180;-64
2021/04/22 03:35:10;;;;;;;18.47;5.13;;;2.60;99.90;;;;;;5032799;28;20198;-64
2021/04/22 03:37:36;;;;;;;11.97;4.43;;;2.50;99.90;;;;;;5034113;28;20292;-64
2021/04/22 03:40:03;;;;;;;14.13;4.73;;;2.50;99.90;;;;;;5034138;28;20213;-64
2021/04/22 03:42:29;;;;;;;18.83;5.17;;;2.50;99.90;;;;;;5034002;28;20677;-65
2021/04/22 03:44:55;;;;;;;11.93;4.80;;;2.50;99.90;;;;;;5034152;28;20230;-65
2021/04/22 03:47:20;;;;;;;14.47;4.13;;;2.40;99.90;;;;;;5033933;28;20278;-65
2021/04/22 03:49:46;;;;;;;9.73;5.23;;;2.40;99.90;;;;;;5033888;28;20597;-63
2021/04/22 03:52:12;;;;;;;12.30;4.30;;;2.40;99.90;;;;;;5033897;28;20176;-65
2021/04/22 03:54:38;;;;;;;8.53;4.23;;;2.40;99.90;;;;;;5016360;28;20200;-65
2021/04/22 03:57:05;;;;;;;17.77;4.70;;;2.30;99.90;;;;;;5033946;28;20659;-64
2021/04/22 03:59:30;;;;;;;20.87;4.93;;;2.30;99.90;;;;;;5034056;28;20214;-65
2021/04/22 04:01:56;;;;;;;12.57;5.13;;;2.30;99.90;;;;;;5033552;28;20202;-64
2021/04/22 04:04:22;;;;;;;9.43;4.17;;;2.50;99.90;;;;;;5033912;28;20684;-64
2021/04/22 04:06:47;;;;;;;17.30;4.73;;;2.30;99.90;;;;;;5033804;28;20196;-64
2021/04/22 04:09:13;;;;;;;13.90;5.13;;;2.30;99.90;;;;;;5034020;28;20191;-65
2021/04/22 04:11:39;;;;;;;17.17;4.37;;;2.30;99.90;;;;;;5033291;28;20187;-64
2021/04/22 04:14:05;;;;;;;14.53;3.93;;;;;;;;;;5033834;28;20182;-65
2021/04/22 04:16:31;;;;;;;15.07;4.03;;;2.30;99.90;;;;;;5015901;28;20180;-65
2021/04/22 04:18:56;;;;;;;11.43;4.10;;;2.30;99.90;;;;;;5033855;28;20175;-65
2021/04/22 04:21:22;;;;;;;11.20;4.23;;;2.20;99.90;;;;;;5033067;28;20190;-66
2021/04/22 04:23:49;;;;;;;17.40;4.27;;;2.30;99.90;;;;;;5033682;28;20214;-65
2021/04/22 04:26:14;;;;;;;15.47;3.90;;;2.20;99.90;;;;;;5033201;28;20286;-64
2021/04/22 04:28:40;;;;;;;10.33;4.00;;;2.20;99.90;;;;;;5033743;28;20780;-65
2021/04/22 04:31:05;;;;;;;9.03;3.80;;;2.20;99.90;;;;;;5033036;28;20202;-66
2021/04/22 04:33:31;;;;;;;14.83;4.10;;;2.20;99.90;;;;;;5033376;28;20171;-66
2021/04/22 04:35:57;;;;;;;12.43;3.70;;;2.20;99.90;;;;;;5032371;28;20211;-64
2021/04/22 04:38:23;;;;;;;14.83;3.67;;;2.20;99.90;;;;;;5033241;28;20172;-65
2021/04/22 04:40:49;;;;;;;10.43;3.50;;;2.20;99.90;;;;;;5032705;28;20258;-66
2021/04/22 04:43:15;;;;;;;9.97;3.70;;;2.20;99.90;;;;;;5033023;28;20321;-62
2021/04/22 04:45:40;;;;;;;19.77;4.87;;;2.20;99.90;;;;;;5032710;28;20205;-63
2021/04/22 04:48:06;;;;;;;10.50;4.47;;;2.30;99.90;;;;;;5032964;28;20170;-63
2021/04/22 04:50:32;;;;;;;13.20;3.87;;;2.30;99.90;;;;;;5031812;28;20266;-63
2021/04/22 04:52:58;;;;;;;9.80;3.97;;;2.30;99.90;;;;;;5032081;28;20562;-63
2021/04/22 04:55:23;;;;;;;15.50;4.70;;;2.30;99.90;;;;;;5032582;28;20279;-62
2021/04/22 04:57:49;;;;;;;13.27;4.87;;;2.50;99.90;;;;;;5032065;28;20179;-62
2021/04/22 05:00:17;;;;;;;11.77;4.17;;;2.50;99.90;;;;;;5014291;28;20186;-63
2021/04/22 05:02:43;;;;;;;17.33;5.27;;;2.50;99.90;;;;;;5032183;28;20273;-63
2021/04/22 05:05:09;;;;;;;12.63;4.23;;;2.60;99.90;;;;;;5032825;28;20653;-63
2021/04/22 05:07:35;;;;;;;14.30;5.43;;;2.70;99.90;;;;;;5032471;28;20175;-64
2021/04/22 05:10:01;;;;;;;14.67;4.67;;;2.70;99.90;;;;;;5032816;28;20220;-63
2021/04/22 05:12:27;;;;;;;18.70;4.50;;;2.70;99.90;;;;;;5032350;28;20816;-63
2021/04/22 05:14:53;;;;;;;15.57;4.63;;;2.70;99.90;;;;;;5032659;28;20304;-63
2021/04/22 05:17:18;;;;;;;14.50;4.23;;;2.80;99.90;;;;;;5032375;28;20191;-63
2021/04/22 05:19:44;;;;;;;14.83;5.13;;;2.90;99.90;;;;;;5032246;28;20588;-64
2021/04/22 05:22:11;;;;;;;11.80;4.10;;;2.90;99.90;;;;;;5032259;28;20195;-63
2021/04/22 05:24:36;;;;;;;10.43;4.70;;;2.90;99.90;;;;;;5032400;28;20616;-64
2021/04/22 05:27:02;;;;;;;14.70;4.70;;;3.00;99.90;;;;;;5032617;28;20176;-63
2021/04/22 05:29:28;;;;;;;12.43;4.07;;;3.10;99.90;;;;;;5032064;28;20187;-63
2021/04/22 05:31:53;;;;;;;12.70;4.67;;;3.20;99.90;;;;;;5032104;28;20180;-63
2021/04/22 05:34:19;;;;;;;15.17;5.00;;;3.60;99.90;;;;;;5031916;28;20267;-63
2021/04/22 05:36:45;;;;;;;16.37;4.87;;;3.50;99.90;;;;;;5032499;28;20222;-63
2021/04/22 05:39:11;;;;;;;13.67;5.13;;;3.70;99.90;;;;;;5031743;28;20644;-65
2021/04/22 05:41:37;;;;;;;18.13;5.40;;;3.80;99.90;;;;;;5013095;28;20767;-65
2021/04/22 05:44:03;;;;;;;17.83;5.70;;;4.00;99.90;;;;;;5032053;28;20221;-65
2021/04/22 05:46:29;;;;;;;15.13;5.67;;;4.10;99.90;;;;;;5031638;28;20287;-65
2021/04/22 05:48:55;;;;;;;8.33;4.97;;;4.20;99.90;;;;;;5032041;28;20235;-65
2021/04/22 05:51:22;;;;;;;14.47;4.83;;;4.30;99.90;;;;;;5030884;28;20194;-65
2021/04/22 05:53:47;;;;;;;20.33;4.80;;;4.50;99.90;;;;;;5030229;28;20253;-65
2021/04/22 05:56:13;;;;;;;22.87;6.07;;;4.70;99.90;;;;;;5030342;28;20653;-65
2021/04/22 05:58:39;;;;;;;15.73;5.03;;;5.10;99.90;;;;;;5031527;28;20182;-64
2021/04/22 06:01:05;;;;;;;14.87;4.43;;;5.40;99.90;;;;;;5031265;28;20512;-64
2021/04/22 06:03:31;;;;;;;17.37;6.17;;;5.80;99.90;;;;;;5031348;28;20653;-64
2021/04/22 06:05:56;;;;;;;20.27;5.10;;;5.90;99.90;;;;;;5030782;28;20183;-62
2021/04/22 06:08:22;;;;;;;17.17;5.90;;;6.00;99.90;;;;;;5030520;28;20183;-64
2021/04/22 06:10:48;;;;;;;13.23;4.93;;;6.30;99.90;;;;;;5031398;28;20168;-64
2021/04/22 06:13:13;;;;;;;18.43;5.10;;;6.40;99.90;;;;;;5031340;28;20305;-62
2021/04/22 06:15:40;;;;;;;19.87;5.53;;;6.40;99.90;;;;;;5031460;28;20280;-64
2021/04/22 06:18:06;;;;;;;27.03;7.40;;;6.80;99.90;;;;;;5031232;28;20180;-64
2021/04/22 06:20:32;;;;;;;16.50;5.30;;;7.10;99.90;;;;;;5031198;28;20266;-64
2021/04/22 06:22:57;;;;;;;18.03;5.70;;;7.40;99.90;;;;;;5031236;28;20349;-63
2021/04/22 06:25:24;;;;;;;22.53;11.30;;;7.50;99.90;;;;;;5013651;28;20207;-64
2021/04/22 06:27:50;;;;;;;16.47;5.20;;;7.60;99.90;;;;;;5030942;28;20176;-65
2021/04/22 06:30:16;;;;;;;15.07;5.70;;;7.60;99.90;;;;;;5021446;28;20176;-64
2021/04/22 06:32:42;;;;;;;19.63;5.33;;;7.50;99.90;;;;;;5013233;28;20179;-64
2021/04/22 06:35:11;;;;;;;20.33;6.13;;;7.30;99.90;;;;;;5031098;28;20562;-63
2021/04/22 06:37:37;;;;;;;12.40;5.47;;;7.30;99.90;;;;;;5031084;28;20179;-64
2021/04/22 06:40:09;;;;;;;22.33;6.00;;;7.70;99.90;;;;;;5031101;28;20229;-63
2021/04/22 06:42:35;;;;;;;25.07;6.33;;;8.00;99.90;;;;;;5011015;28;20203;-64
2021/04/22 06:45:00;;;;;;;20.80;6.83;;;8.30;99.90;;;;;;5031077;28;20192;-64
2021/04/22 06:47:26;;;;;;;25.43;15.60;;;8.50;99.90;;;;;;5030146;28;20233;-63
2021/04/22 06:49:52;;;;;;;21.37;7.50;;;8.80;99.90;;;;;;5031235;28;20172;-64
2021/04/22 06:52:17;;;;;;;25.77;6.53;;;8.90;99.90;;;;;;5030732;28;20257;-63
2021/04/22 06:54:43;;;;;;;20.30;6.43;;;9.10;99.90;;;;;;5031218;28;20207;-64
2021/04/22 06:57:08;;;;;;;16.27;6.90;;;9.40;99.90;;;;;;5031015;28;20656;-64
2021/04/22 06:59:34;;;;;;;21.40;6.97;;;9.70;99.90;;;;;;5031208;28;20182;-65
2021/04/22 07:02:00;;;;;;;15.93;7.63;;;9.90;99.90;;;;;;5031622;28;20278;-64
2021/04/22 07:04:25;;;;;;;18.70;5.80;;;10.30;99.90;;;;;;5031192;28;20192;-65
2021/04/22 07:06:51;;;;;;;13.63;5.70;;;10.40;99.90;;;;;;5031244;28;20195;-64
2021/04/22 07:09:18;;;;;;;20.23;6.83;;;10.60;99.90;;;;;;5030823;28;20190;-64
2021/04/22 07:11:44;;;;;;;15.00;5.03;;;10.80;99.90;;;;;;5030784;28;20218;-65
2021/04/22 07:14:10;;;;;;;18.57;5.27;;;10.90;99.90;;;;;;5030868;28;20175;-64
2021/04/22 07:16:37;;;;;;;19.17;6.00;;;11.00;99.90;;;;;;5013346;28;20176;-64
2021/04/22 07:19:04;;;;;;;17.37;5.47;;;11.20;99.90;;;;;;5013236;28;20274;-64
2021/04/22 07:21:30;;;;;;;14.37;4.70;;;11.10;99.90;;;;;;5034186;28;20180;-63
2021/04/22 07:23:56;;;;;;;14.10;4.73;;;11.20;99.90;;;;;;5034373;28;20191;-64
2021/04/22 07:26:22;;;;;;;16.70;5.27;;;11.20;99.90;;;;;;5034624;28;20234;-64
2021/04/22 07:28:47;;;;;;;20.10;5.80;;;11.80;99.90;;;;;;5034370;28;20187;-64
2021/04/22 07:31:13;;;;;;;16.77;5.57;;;12.10;99.90;;;;;;5034258;28;20174;-64
2021/04/22 07:33:38;;;;;;;14.07;4.53;;;12.10;99.90;;;;;;5034286;28;20168;-63
2021/04/22 07:36:05;;;;;;;14.93;4.83;;;12.10;99.90;;;;;;5034469;28;20274;-64
2021/04/22 07:38:30;;;;;;;18.87;5.90;;;12.00;99.90;;;;;;5034199;28;20180;-63
2021/04/22 07:40:56;;;;;;;12.33;4.83;;;11.70;99.90;;;;;;5034147;28;20179;-64
2021/04/22 07:43:22;;;;;;;11.87;5.20;;;11.80;99.90;;;;;;5033970;28;20218;-63
2021/04/22 07:45:47;;;;;;;10.67;4.53;;;11.70;99.90;;;;;;5033972;28;20718;-65
2021/04/22 07:48:15;;;;;;;14.83;3.60;;;11.50;99.90;;;;;;5033925;28;20175;-63
2021/04/22 07:50:41;;;;;;;13.07;4.07;;;11.70;99.90;;;;;;5033943;28;20176;-64
2021/04/22 07:53:07;;;;;;;14.90;4.20;;;12.40;99.90;;;;;;5033861;28;20544;-63
2021/04/22 07:55:41;;;;;;;7.33;3.17;;;13.10;99.90;;;;;;5033892;28;20192;-64
2021/04/22 07:58:07;;;;;;;7.17;2.80;;;13.60;99.90;;;;;;5033995;28;20180;-64
2021/04/22 08:00:34;;;;;;;11.07;3.67;;;13.90;99.90;;;;;;5033656;28;20251;-64
2021/04/22 08:03:01;;;;;;;9.90;3.10;;;13.40;99.90;;;;;;5033558;28;20246;-64
2021/04/22 08:05:31;;;;;;;9.77;3.43;;;12.90;99.90;;;;;;5033652;28;20230;-64
2021/04/22 08:07:57;;;;;;;10.57;3.30;;;12.60;99.90;;;;;;5033880;28;20170;-64
2021/04/22 08:10:27;;;;;;;9.93;3.47;;;12.30;99.90;;;;;;5033329;28;20262;-64
2021/04/22 08:12:53;;;;;;;12.50;3.10;;;12.20;99.90;;;;;;5033807;28;20263;-65
2021/04/22 08:15:19;;;;;;;9.73;3.87;;;12.50;99.90;;;;;;5033383;28;20199;-66
2021/04/22 08:17:45;;;;;;;13.43;3.10;;;12.80;99.90;;;;;;5033572;28;20171;-65
2021/04/22 08:20:21;;;;;;;13.87;3.53;;;13.30;99.90;;;;;;5033361;28;20546;-65
2021/04/22 08:22:47;;;;;;;9.93;3.73;;;13.20;99.90;;;;;;5033654;28;20199;-65
2021/04/22 08:25:19;;;;;;;10.70;3.07;;;12.70;99.90;;;;;;5033138;28;20211;-65
2021/04/22 08:27:49;;;;;;;7.90;3.13;;;12.50;99.90;;;;;;5033389;28;20221;-65
2021/04/22 08:30:20;;;;;;;9.17;2.90;;;12.80;99.90;;;;;;5033692;28;20495;-66
2021/04/22 08:32:45;;;;;;;12.33;3.00;;;13.30;99.90;;;;;;5032495;28;20172;-65
2021/04/22 08:35:11;;;;;;;7.27;3.07;;;13.40;99.90;;;;;;5033432;28;20234;-65
2021/04/22 08:37:38;;;;;;;11.73;3.27;;;13.60;99.90;;;;;;5033072;28;20182;-66
2021/04/22 08:40:09;;;;;;;17.27;3.70;;;14.00;99.90;;;;;;5033110;28;20164;-66
2021/04/22 08:42:35;;;;;;;7.43;2.53;;;14.10;99.90;;;;;;5033268;28;20252;-64
2021/04/22 08:45:03;;;;;;;12.30;3.20;;;14.10;99.90;;;;;;5032650;28;20195;-64
2021/04/22 08:47:29;;;;;;;9.33;3.27;;;14.60;99.90;;;;;;5033147;28;20182;-64
2021/04/22 08:49:56;;;;;;;9.07;2.93;;;14.30;99.90;;;;;;5032551;28;20257;-64
2021/04/22 08:52:23;;;;;;;11.77;3.57;;;14.10;99.90;;;;;;5033013;28;20179;-64
2021/04/22 08:54:53;;;;;;;13.13;3.57;;;13.90;99.90;;;;;;5032537;28;20195;-63
2021/04/22 08:57:19;;;;;;;12.63;3.23;;;13.80;99.90;;;;;;5032027;28;20238;-63
2021/04/22 08:59:46;;;;;;;10.70;3.30;;;14.00;99.90;;;;;;5032030;28;20176;-64
2021/04/22 09:02:12;;;;;;;13.00;4.97;;;13.70;99.90;;;;;;5014461;28;20265;-64
2021/04/22 09:04:38;;;;;;;13.33;4.40;;;13.60;99.90;;;;;;5032643;28;20191;-64
2021/04/22 09:07:04;;;;;;;10.30;3.97;;;13.60;99.90;;;;;;5032368;28;20176;-63
2021/04/22 09:09:30;;;;;;;10.07;4.30;;;13.70;99.90;;;;;;5032641;28;20545;-64
2021/04/22 09:11:55;;;;;;;10.03;3.73;;;13.40;99.90;;;;;;5031934;28;20199;-64
2021/04/22 09:14:23;;;;;;;9.40;4.10;;;13.70;99.90;;;;;;5032427;28;20250;-64
2021/04/22 09:16:49;;;;;;;10.67;4.20;;;13.70;99.90;;;;;;5031881;28;20258;-64
2021/04/22 09:19:27;;;;;;;9.73;4.20;;;13.90;99.90;;;;;;5014746;28;20589;-65
2021/04/22 09:21:56;;;;;;;12.20;3.90;;;14.70;99.90;;;;;;5035954;28;20286;-66
2021/04/22 09:24:27;;;;;;;12.20;3.30;;;15.40;99.90;;;;;;5035520;28;20179;-65
2021/04/22 09:26:57;;;;;;;12.60;3.70;;;15.40;99.90;;;;;;5032474;28;21886;-64
2021/04/22 09:29:40;;;;;;;17.30;4.00;;;14.90;99.70;;;;;;5032288;28;20195;-64
2021/04/22 09:32:21;;;;;;;7.80;3.40;;;15.30;99.90;;;;;;5032130;28;20175;-64
2021/04/22 09:34:59;;;;;;;11.80;3.43;;;15.40;99.70;;;;;;5032076;28;20210;-64
2021/04/22 09:37:36;;;;;;;11.17;3.93;;;16.00;99.90;;;;;;5032329;28;20202;-64
2021/04/22 09:40:20;;;;;;;8.07;2.93;;;16.30;99.90;;;;;;5031140;28;20194;-64
2021/04/22 09:42:47;;;;;;;9.17;2.87;;;16.50;99.90;;;;;;5031701;28;20239;-64
2021/04/22 09:45:15;;;;;;;10.50;3.70;;;15.70;98.40;;;;;;5030602;28;20266;-65
2021/04/22 09:47:40;;;;;;;12.23;3.67;;;15.20;99.40;;;;;;5031673;28;20541;-64
2021/04/22 09:50:13;;;;;;;10.27;4.10;;;15.10;98.90;;;;;;5031517;28;20255;-64
2021/04/22 09:52:41;;;;;;;8.80;3.70;;;15.10;98.00;;;;;;5014095;28;20195;-64
2021/04/22 09:55:17;;;;;;;8.83;3.40;;;15.50;99.70;;;;;;5031601;28;20252;-64
2021/04/22 09:57:44;;;;;;;9.23;3.03;;;16.10;98.90;;;;;;5032866;28;20492;-64
2021/04/22 10:00:17;;;;;;;10.23;4.33;;;16.40;98.80;;;;;;5031281;28;20641;-65
2021/04/22 10:02:55;;;;;;;12.27;4.30;;;16.70;97.20;;;;;;5031554;28;20297;-65
2021/04/22 10:05:29;;;;;;;10.50;3.55;;;16.40;98.30;;;;;;5031717;28;20584;-65
2021/04/22 10:08:13;;;;;;;7.55;2.90;;;16.70;97.30;;;;;;5031507;28;20168;-64
2021/04/22 10:10:57;;;;;;;12.88;3.50;;;17.40;97.80;;;;;;5031559;28;20633;-64
2021/04/22 10:13:23;;;;;;;8.70;3.37;;;17.50;95.70;;;;;;5031723;28;20198;-64
2021/04/22 10:15:54;;;;;;;13.23;4.00;;;17.70;98.70;;;;;;5031534;28;20230;-63
2021/04/22 10:18:20;;;;;;;10.18;3.70;;;18.30;96.80;;;;;;5031608;28;20199;-63
2021/04/22 10:20:48;;;;;;;10.13;3.42;;;18.10;94.10;;;;;;5031265;28;20180;-64
2021/04/22 10:23:14;;;;;;;11.00;3.67;;;17.80;94.70;;;;;;5030828;28;20653;-65
2021/04/22 10:25:43;;;;;;;9.67;3.80;;;17.20;95.00;;;;;;5031457;28;20222;-63
2021/04/22 10:28:12;;;;;;;9.70;3.80;;;17.10;95.40;;;;;;5031399;28;20644;-64
2021/04/22 10:30:40;;;;;;;9.73;4.07;;;16.60;95.00;;;;;;5031242;28;20176;-63
2021/04/22 10:33:06;;;;;;;9.47;4.17;;;16.50;94.60;;;;;;5031384;28;20171;-64
2021/04/22 10:35:36;;;;;;;7.27;3.57;;;16.60;96.50;;;;;;5031429;28;20214;-64
2021/04/22 10:38:03;;;;;;;7.50;3.47;;;16.60;94.70;;;;;;5031265;28;20254;-62
2021/04/22 10:40:38;;;;;;;12.33;5.33;;;15.90;93.60;;;;;;5030972;28;20266;-62
2021/04/22 10:43:06;;;;;;;7.70;3.10;;;15.80;96.10;;;;;;5031422;28;20723;-64
2021/04/22 10:45:33;;;;;;;9.27;3.43;;;15.80;96.30;;;;;;5031210;28;20183;-63
2021/04/22 10:47:59;;;;;;;15.13;4.17;;;16.20;94.40;;;;;;5031084;28;20167;-64
2021/04/22 10:50:30;;;;;;;12.40;4.03;;;16.40;95.30;;;;;;5030385;28;20190;-64
2021/04/22 10:52:57;;;;;;;12.43;4.23;;;16.90;96.20;;;;;;5031400;28;20503;-64
2021/04/22 10:55:31;;;;;;;12.40;3.50;;;16.80;95.10;;;;;;5014973;28;20199;-63
2021/04/22 10:58:12;;;;;;;10.37;4.40;;;17.00;94.50;;;;;;5034339;28;20684;-64
2021/04/22 11:00:37;;;;;;;10.60;3.87;;;17.20;93.40;;;;;;5034669;28;20282;-64
2021/04/22 11:03:03;;;;;;;9.17;3.93;;;17.50;95.50;;;;;;5033633;28;20215;-63
2021/04/22 11:05:31;;;;;;;9.27;3.67;;;17.50;93.70;;;;;;5035044;28;20195;-64
2021/04/22 11:08:00;;;;;;;12.60;3.97;;;17.40;93.50;;;;;;5034511;28;20183;-64
2021/04/22 11:10:39;;;;;;;11.60;3.70;;;17.00;94.00;;;;;;5034536;28;20175;-63
2021/04/22 11:13:32;;;;;;;9.97;4.47;;;17.10;94.10;;;;;;5034478;28;20611;-63
2021/04/22 11:16:04;;;;;;;7.57;3.13;;;17.20;93.30;;;;;;5031405;28;20253;-64
2021/04/22 11:18:42;;;;;;;10.32;3.75;;;17.50;94.10;;;;;;5033578;28;20192;-64
2021/04/22 11:21:33;;;;;;;9.77;3.55;;;18.10;94.20;;;;;;5033454;28;20181;-64
2021/04/22 11:24:02;;;;;;;11.52;3.30;;;18.80;95.00;;;;;;5034156;28;20211;-64
2021/04/22 11:26:35;;;;;;;6.63;3.10;;;19.10;91.50;;;;;;5035261;28;20203;-65
2021/04/22 11:29:17;;;;;;;11.87;5.07;;;18.20;91.70;;;;;;5034877;28;20171;-64
2021/04/22 11:31:56;;;;;;;9.20;3.17;;;17.30;93.30;;;;;;5034184;28;20175;-64
2021/04/22 11:34:33;;;;;;;8.97;3.70;;;16.80;93.10;;;;;;5034530;28;20207;-64
2021/04/22 11:36:58;;;;;;;9.80;4.23;;;17.10;94.30;;;;;;5034384;28;20666;-64
2021/04/22 11:39:32;;;;;;;6.75;3.60;;;17.60;94.00;;;;;;5034356;28;20168;-63
2021/04/22 11:42:01;;;;;;;8.50;3.60;;;17.70;92.30;;;;;;5033725;28;20675;-64
2021/04/22 11:44:38;;;;;;;8.47;4.50;;;17.20;92.80;;;;;;5034150;28;20192;-65
2021/04/22 11:47:33;;;;;;;7.90;3.90;;;16.70;93.90;;;;;;5034130;28;20178;-65
2021/04/22 11:50:15;;;;;;;10.02;4.03;;;17.40;95.30;;;;;;5016543;28;20190;-64
2021/04/22 11:52:47;;;;;;;10.90;5.07;;;17.50;94.10;;;;;;5019161;28;20183;-63
2021/04/22 11:55:51;;;;;;;6.67;4.10;;;17.40;94.50;;;;;;5032793;28;20257;-64
2021/04/22 11:58:22;;;;;;;7.93;4.10;;;17.80;94.10;;;;;;4952853;29;20186;-64
2021/04/22 12:00:49;;;;;;;10.23;3.87;;;17.90;93.10;;;;;;5003967;28;20211;-63
2021/04/22 12:03:22;;;;;;;8.77;3.90;;;18.00;92.70;;;;;;5029844;28;20207;-64
2021/04/22 12:05:51;;;;;;;8.70;4.13;;;17.70;93.00;;;;;;5013379;28;20250;-64
2021/04/22 12:08:16;;;;;;;10.47;4.47;;;18.10;94.80;;;;;;5028496;28;20179;-63
2021/04/22 12:10:48;;;;;;;12.27;4.18;;;18.40;92.20;;;;;;5032221;28;20603;-62
2021/04/22 12:13:19;;;;;;;9.40;4.00;;;18.40;91.20;;;;;;5033125;28;20533;-64
2021/04/22 12:15:51;;;;;;;8.77;4.97;;;18.50;92.90;;;;;;5013769;28;20199;-64
2021/04/22 12:18:28;;;;;;;12.20;5.03;;;18.80;90.90;;;;;;5030048;28;20645;-64
2021/04/22 12:21:05;;;;;;;10.45;4.13;;;18.90;91.30;;;;;;5032318;28;20186;-64
2021/04/22 12:23:33;;;;;;;10.85;3.90;;;19.50;91.90;;;;;;5032704;28;20199;-64
2021/04/22 12:26:13;;;;;;;10.38;3.65;;;19.40;91.10;;;;;;5032829;28;20642;-64
2021/04/22 12:28:53;;;;;;;10.02;3.75;;;19.20;90.40;;;;;;5033006;28;20186;-64
2021/04/22 12:31:38;;;;;;;12.00;4.73;;;18.40;90.40;;;;;;5032246;28;20179;-63
2021/04/22 12:34:21;;;;;;;9.57;4.10;;;18.60;93.30;;;;;;5031747;28;20176;-64
2021/04/22 12:37:00;;;;;;;11.63;4.13;;;18.30;92.70;;;;;;5032785;28;20175;-63
2021/04/22 12:39:57;;;;;;;8.10;3.78;;;18.60;94.20;;;;;;5027336;28;20183;-64
2021/04/22 12:42:27;;;;;;;9.32;4.25;;;19.00;92.70;;;;;;5032076;28;20211;-62
2021/04/22 12:45:18;;;;;;;7.20;3.50;;;19.10;90.70;;;;;;5032564;28;20195;-63
2021/04/22 12:47:54;;;;;;;7.97;4.22;;;19.00;91.20;;;;;;5033102;28;20259;-64
2021/04/22 12:50:22;;;;;;;10.68;4.63;;;19.30;92.00;;;;;;5032548;28;20167;-63
2021/04/22 12:52:49;;;;;;;8.95;6.57;;;19.40;92.60;;;;;;5032794;28;20660;-63